sensor_id;sensor_type;location;lat;lon;timestamp;pressure;altitude;pressure_sealevel;temperature;humidity
64086;BME280;50333;47.436;21.390;2022-11-03T00:01:49;101323.81;;;10.00;86.74
64086;BME280;50333;47.436;21.390;2022-11-03T00:04:21;101338.06;;;10.38;84.44
64086;BME280;50333;47.436;21.390;2022-11-03T00:06:52;101351.13;;;10.27;84.93
64086;BME280;50333;47.436;21.390;2022-11-03T00:09:22;101353.16;;;10.36;83.22
64086;BME280;50333;47.436;21.390;2022-11-03T00:11:50;101359.16;;;10.37;83.93
64086;BME280;50333;47.436;21.390;2022-11-03T00:14:18;101362.22;;;10.34;84.52
64086;BME280;50333;47.436;21.390;2022-11-03T00:16:46;101366.75;;;10.38;83.14
64086;BME280;50333;47.436;21.390;2022-11-03T00:19:15;101362.09;;;10.29;85.13
64086;BME280;50333;47.436;21.390;2022-11-03T00:21:44;101367.78;;;10.54;83.46
64086;BME280;50333;47.436;21.390;2022-11-03T00:24:13;101362.34;;;10.73;82.29
64086;BME280;50333;47.436;21.390;2022-11-03T00:26:41;101368.28;;;10.85;81.17
64086;BME280;50333;47.436;21.390;2022-11-03T00:29:11;101369.00;;;10.98;80.05
64086;BME280;50333;47.436;21.390;2022-11-03T00:31:42;101372.47;;;10.86;81.16
64086;BME280;50333;47.436;21.390;2022-11-03T00:34:10;101374.28;;;10.69;81.57
64086;BME280;50333;47.436;21.390;2022-11-03T00:36:40;101372.53;;;11.08;80.49
64086;BME280;50333;47.436;21.390;2022-11-03T00:39:10;101380.38;;;10.91;80.73
64086;BME280;50333;47.436;21.390;2022-11-03T00:41:56;101382.81;;;10.81;81.76
64086;BME280;50333;47.436;21.390;2022-11-03T00:44:24;101364.88;;;11.02;80.71
64086;BME280;50333;47.436;21.390;2022-11-03T00:46:53;101370.56;;;11.16;80.07
64086;BME280;50333;47.436;21.390;2022-11-03T00:49:21;101374.03;;;11.21;79.34
64086;BME280;50333;47.436;21.390;2022-11-03T00:51:49;101389.34;;;11.35;79.62
64086;BME280;50333;47.436;21.390;2022-11-03T00:54:17;101386.34;;;11.43;79.30
64086;BME280;50333;47.436;21.390;2022-11-03T00:56:45;101384.59;;;11.31;79.51
64086;BME280;50333;47.436;21.390;2022-11-03T00:59:32;101382.66;;;11.05;80.91
64086;BME280;50333;47.436;21.390;2022-11-03T01:02:37;101379.34;;;11.09;81.20
64086;BME280;50333;47.436;21.390;2022-11-03T01:05:07;101383.34;;;11.34;80.65
64086;BME280;50333;47.436;21.390;2022-11-03T01:07:55;101379.09;;;11.11;80.79
64086;BME280;50333;47.436;21.390;2022-11-03T01:10:24;101377.31;;;11.33;80.98
64086;BME280;50333;47.436;21.390;2022-11-03T01:12:52;101365.94;;;11.40;80.24
64086;BME280;50333;47.436;21.390;2022-11-03T01:15:20;101359.19;;;11.05;81.82
64086;BME280;50333;47.436;21.390;2022-11-03T01:17:48;101363.16;;;10.90;82.73
64086;BME280;50333;47.436;21.390;2022-11-03T01:20:16;101359.94;;;11.22;81.86
64086;BME280;50333;47.436;21.390;2022-11-03T01:22:43;101353.50;;;11.08;82.55
64086;BME280;50333;47.436;21.390;2022-11-03T01:25:11;101348.44;;;10.84;83.29
64086;BME280;50333;47.436;21.390;2022-11-03T01:27:39;101353.69;;;11.23;82.26
64086;BME280;50333;47.436;21.390;2022-11-03T01:30:08;101351.59;;;11.03;83.13
64086;BME280;50333;47.436;21.390;2022-11-03T01:32:36;101355.06;;;11.09;82.51
64086;BME280;50333;47.436;21.390;2022-11-03T01:35:04;101353.97;;;11.05;82.63
64086;BME280;50333;47.436;21.390;2022-11-03T01:37:32;101351.66;;;11.25;82.32
64086;BME280;50333;47.436;21.390;2022-11-03T01:40:00;101336.62;;;10.99;83.27
64086;BME280;50333;47.436;21.390;2022-11-03T01:42:28;101335.09;;;10.81;84.47
64086;BME280;50333;47.436;21.390;2022-11-03T01:44:56;101334.94;;;10.87;84.15
64086;BME280;50333;47.436;21.390;2022-11-03T01:47:30;101337.25;;;11.06;83.68
64086;BME280;50333;47.436;21.390;2022-11-03T01:50:05;101333.31;;;11.03;83.59
64086;BME280;50333;47.436;21.390;2022-11-03T01:52:45;101331.97;;;10.33;87.03
64086;BME280;50333;47.436;21.390;2022-11-03T01:55:17;101330.16;;;10.67;85.77
64086;BME280;50333;47.436;21.390;2022-11-03T01:57:56;101328.03;;;10.81;86.30
64086;BME280;50333;47.436;21.390;2022-11-03T02:00:25;101327.09;;;11.26;83.75
64086;BME280;50333;47.436;21.390;2022-11-03T02:02:54;101331.94;;;11.18;84.31
64086;BME280;50333;47.436;21.390;2022-11-03T02:05:24;101324.47;;;11.04;85.12
64086;BME280;50333;47.436;21.390;2022-11-03T02:08:16;101335.16;;;11.03;85.17
64086;BME280;50333;47.436;21.390;2022-11-03T02:10:47;101334.25;;;11.14;85.38
64086;BME280;50333;47.436;21.390;2022-11-03T02:13:21;101331.78;;;10.85;86.40
64086;BME280;50333;47.436;21.390;2022-11-03T02:15:53;101330.72;;;10.86;87.35
64086;BME280;50333;47.436;21.390;2022-11-03T02:18:27;101328.84;;;10.82;87.36
64086;BME280;50333;47.436;21.390;2022-11-03T02:24:15;101335.16;;;10.86;87.95
64086;BME280;50333;47.436;21.390;2022-11-03T02:26:47;101336.13;;;11.36;85.32
64086;BME280;50333;47.436;21.390;2022-11-03T02:29:16;101339.22;;;11.32;84.94
64086;BME280;50333;47.436;21.390;2022-11-03T02:31:50;101340.00;;;11.33;85.69
64086;BME280;50333;47.436;21.390;2022-11-03T02:34:41;101333.88;;;11.44;84.82
64086;BME280;50333;47.436;21.390;2022-11-03T02:37:20;101339.03;;;11.61;84.30
64086;BME280;50333;47.436;21.390;2022-11-03T02:39:58;101340.22;;;11.31;85.98
64086;BME280;50333;47.436;21.390;2022-11-03T02:42:28;101341.38;;;11.02;87.10
64086;BME280;50333;47.436;21.390;2022-11-03T02:45:00;101344.84;;;11.24;86.73
64086;BME280;50333;47.436;21.390;2022-11-03T02:47:29;101338.97;;;11.56;85.37
64086;BME280;50333;47.436;21.390;2022-11-03T02:49:58;101347.00;;;11.94;83.68
64086;BME280;50333;47.436;21.390;2022-11-03T02:57:57;101354.75;;;11.88;83.42
64086;BME280;50333;47.436;21.390;2022-11-03T03:00:30;101363.16;;;11.91;83.15
64086;BME280;50333;47.436;21.390;2022-11-03T03:03:07;101359.75;;;12.12;82.48
64086;BME280;50333;47.436;21.390;2022-11-03T03:05:39;101355.16;;;12.24;82.42
64086;BME280;50333;47.436;21.390;2022-11-03T03:08:09;101364.91;;;12.34;81.63
64086;BME280;50333;47.436;21.390;2022-11-03T03:10:44;101360.50;;;12.40;80.61
64086;BME280;50333;47.436;21.390;2022-11-03T03:13:15;101367.12;;;12.48;80.31
64086;BME280;50333;47.436;21.390;2022-11-03T03:16:11;101364.81;;;12.24;81.90
64086;BME280;50333;47.436;21.390;2022-11-03T03:18:50;101367.81;;;12.38;81.11
64086;BME280;50333;47.436;21.390;2022-11-03T03:21:30;101369.88;;;12.63;79.81
64086;BME280;50333;47.436;21.390;2022-11-03T03:24:04;101367.19;;;12.53;80.50
64086;BME280;50333;47.436;21.390;2022-11-03T03:26:41;101373.91;;;12.43;80.89
64086;BME280;50333;47.436;21.390;2022-11-03T03:29:17;101372.94;;;12.55;80.41
64086;BME280;50333;47.436;21.390;2022-11-03T03:31:53;101372.19;;;12.27;81.34
64086;BME280;50333;47.436;21.390;2022-11-03T03:34:25;101373.41;;;12.47;81.41
64086;BME280;50333;47.436;21.390;2022-11-03T03:37:04;101374.34;;;12.35;82.05
64086;BME280;50333;47.436;21.390;2022-11-03T03:39:36;101374.69;;;12.44;81.47
64086;BME280;50333;47.436;21.390;2022-11-03T03:42:07;101376.81;;;12.47;81.74
64086;BME280;50333;47.436;21.390;2022-11-03T03:44:38;101372.31;;;12.70;80.43
64086;BME280;50333;47.436;21.390;2022-11-03T03:47:19;101369.41;;;12.71;80.42
64086;BME280;50333;47.436;21.390;2022-11-03T03:49:49;101374.94;;;12.75;80.39
64086;BME280;50333;47.436;21.390;2022-11-03T03:52:17;101379.31;;;12.64;80.50
64086;BME280;50333;47.436;21.390;2022-11-03T03:54:45;101384.53;;;12.64;80.84
64086;BME280;50333;47.436;21.390;2022-11-03T03:57:14;101392.47;;;12.74;80.52
64086;BME280;50333;47.436;21.390;2022-11-03T03:59:44;101384.88;;;12.73;80.42
64086;BME280;50333;47.436;21.390;2022-11-03T04:02:12;101382.00;;;12.74;80.81
64086;BME280;50333;47.436;21.390;2022-11-03T04:04:42;101392.06;;;12.88;79.76
64086;BME280;50333;47.436;21.390;2022-11-03T04:07:09;101387.09;;;12.91;79.55
64086;BME280;50333;47.436;21.390;2022-11-03T04:09:58;101390.78;;;12.95;79.50
64086;BME280;50333;47.436;21.390;2022-11-03T04:12:26;101394.66;;;12.88;80.20
64086;BME280;50333;47.436;21.390;2022-11-03T04:15:13;101395.50;;;12.93;79.81
64086;BME280;50333;47.436;21.390;2022-11-03T04:17:59;101397.56;;;12.91;80.06
64086;BME280;50333;47.436;21.390;2022-11-03T04:20:46;101393.44;;;12.63;79.95
64086;BME280;50333;47.436;21.390;2022-11-03T04:23:33;101387.41;;;12.95;79.77
64086;BME280;50333;47.436;21.390;2022-11-03T04:26:03;101389.16;;;12.84;80.06
64086;BME280;50333;47.436;21.390;2022-11-03T04:28:34;101376.34;;;12.88;80.35
64086;BME280;50333;47.436;21.390;2022-11-03T04:31:06;101379.31;;;12.64;81.14
64086;BME280;50333;47.436;21.390;2022-11-03T04:33:37;101388.28;;;12.73;80.89
64086;BME280;50333;47.436;21.390;2022-11-03T04:36:20;101385.59;;;12.63;81.66
64086;BME280;50333;47.436;21.390;2022-11-03T04:38:49;101386.13;;;12.65;80.96
64086;BME280;50333;47.436;21.390;2022-11-03T04:41:28;101383.47;;;12.33;83.28
64086;BME280;50333;47.436;21.390;2022-11-03T04:43:58;101388.09;;;12.85;80.31
64086;BME280;50333;47.436;21.390;2022-11-03T04:46:28;101390.78;;;12.95;79.96
64086;BME280;50333;47.436;21.390;2022-11-03T04:48:58;101395.28;;;13.00;79.45
64086;BME280;50333;47.436;21.390;2022-11-03T04:51:30;101396.97;;;12.79;80.75
64086;BME280;50333;47.436;21.390;2022-11-03T04:54:08;101394.41;;;12.57;82.40
64086;BME280;50333;47.436;21.390;2022-11-03T04:56:39;101395.38;;;12.45;83.18
64086;BME280;50333;47.436;21.390;2022-11-03T04:59:10;101391.06;;;12.99;80.14
64086;BME280;50333;47.436;21.390;2022-11-03T05:01:41;101390.19;;;12.51;83.49
64086;BME280;50333;47.436;21.390;2022-11-03T05:04:13;101389.00;;;12.36;83.55
64086;BME280;50333;47.436;21.390;2022-11-03T05:06:51;101389.50;;;12.66;82.60
64086;BME280;50333;47.436;21.390;2022-11-03T05:09:26;101390.91;;;12.46;83.34
64086;BME280;50333;47.436;21.390;2022-11-03T05:11:57;101393.63;;;12.29;84.60
64086;BME280;50333;47.436;21.390;2022-11-03T05:14:27;101385.31;;;12.10;84.98
64086;BME280;50333;47.436;21.390;2022-11-03T05:17:00;101392.44;;;12.15;84.90
64086;BME280;50333;47.436;21.390;2022-11-03T05:19:36;101391.22;;;12.50;83.67
64086;BME280;50333;47.436;21.390;2022-11-03T05:22:16;101391.38;;;12.11;85.47
64086;BME280;50333;47.436;21.390;2022-11-03T05:24:46;101395.47;;;12.06;87.14
64086;BME280;50333;47.436;21.390;2022-11-03T05:27:18;101398.47;;;12.42;84.59
64086;BME280;50333;47.436;21.390;2022-11-03T05:29:49;101401.09;;;11.93;86.50
64086;BME280;50333;47.436;21.390;2022-11-03T05:32:29;101402.91;;;12.15;86.34
64086;BME280;50333;47.436;21.390;2022-11-03T05:35:00;101404.84;;;12.02;87.97
64086;BME280;50333;47.436;21.390;2022-11-03T05:37:31;101406.03;;;11.73;89.79
64086;BME280;50333;47.436;21.390;2022-11-03T05:40:02;101408.09;;;11.31;92.42
64086;BME280;50333;47.436;21.390;2022-11-03T05:42:43;101414.84;;;11.27;94.11
64086;BME280;50333;47.436;21.390;2022-11-03T05:45:33;101417.38;;;11.39;92.07
64086;BME280;50333;47.436;21.390;2022-11-03T05:48:11;101411.53;;;11.54;91.68
64086;BME280;50333;47.436;21.390;2022-11-03T05:50:41;101427.81;;;11.22;93.73
64086;BME280;50333;47.436;21.390;2022-11-03T05:55:49;101420.91;;;11.16;94.45
64086;BME280;50333;47.436;21.390;2022-11-03T05:58:26;101418.88;;;10.84;97.52
64086;BME280;50333;47.436;21.390;2022-11-03T06:01:29;101421.34;;;11.08;96.89
64086;BME280;50333;47.436;21.390;2022-11-03T06:05:23;101406.00;;;10.94;98.42
64086;BME280;50333;47.436;21.390;2022-11-03T06:07:53;101406.84;;;11.34;95.32
64086;BME280;50333;47.436;21.390;2022-11-03T06:10:28;101418.38;;;11.21;95.47
64086;BME280;50333;47.436;21.390;2022-11-03T06:13:03;101408.00;;;11.43;95.03
64086;BME280;50333;47.436;21.390;2022-11-03T06:15:37;101416.41;;;11.28;96.77
64086;BME280;50333;47.436;21.390;2022-11-03T06:18:18;101416.34;;;11.62;93.67
64086;BME280;50333;47.436;21.390;2022-11-03T06:20:52;101435.12;;;11.42;95.59
64086;BME280;50333;47.436;21.390;2022-11-03T06:23:22;101440.09;;;12.00;90.88
64086;BME280;50333;47.436;21.390;2022-11-03T06:25:52;101446.78;;;12.13;90.21
64086;BME280;50333;47.436;21.390;2022-11-03T06:28:34;101453.87;;;12.17;88.80
64086;BME280;50333;47.436;21.390;2022-11-03T06:31:08;101456.84;;;12.21;89.37
64086;BME280;50333;47.436;21.390;2022-11-03T06:33:43;101457.78;;;12.37;88.44
64086;BME280;50333;47.436;21.390;2022-11-03T06:36:47;101468.91;;;12.05;90.26
64086;BME280;50333;47.436;21.390;2022-11-03T06:39:20;101465.38;;;12.38;89.01
64086;BME280;50333;47.436;21.390;2022-11-03T06:41:49;101470.50;;;12.28;89.83
64086;BME280;50333;47.436;21.390;2022-11-03T06:44:25;101469.03;;;12.37;88.39
64086;BME280;50333;47.436;21.390;2022-11-03T06:46:56;101476.28;;;12.08;91.21
64086;BME280;50333;47.436;21.390;2022-11-03T06:49:29;101478.88;;;12.52;89.14
64086;BME280;50333;47.436;21.390;2022-11-03T06:52:01;101481.91;;;12.71;86.96
64086;BME280;50333;47.436;21.390;2022-11-03T06:54:32;101482.47;;;12.73;86.85
64086;BME280;50333;47.436;21.390;2022-11-03T06:57:12;101483.06;;;12.80;86.46
64086;BME280;50333;47.436;21.390;2022-11-03T07:00:24;101485.97;;;12.84;85.02
64086;BME280;50333;47.436;21.390;2022-11-03T07:03:31;101486.25;;;13.15;84.04
64086;BME280;50333;47.436;21.390;2022-11-03T07:06:23;101490.69;;;13.14;83.87
64086;BME280;50333;47.436;21.390;2022-11-03T07:08:55;101493.88;;;13.21;82.61
64086;BME280;50333;47.436;21.390;2022-11-03T07:11:27;101489.91;;;13.14;82.45
64086;BME280;50333;47.436;21.390;2022-11-03T07:13:58;101492.78;;;12.85;84.33
64086;BME280;50333;47.436;21.390;2022-11-03T07:16:43;101492.72;;;13.07;83.83
64086;BME280;50333;47.436;21.390;2022-11-03T07:21:58;101486.75;;;13.12;83.18
64086;BME280;50333;47.436;21.390;2022-11-03T07:24:33;101483.63;;;13.15;82.18
64086;BME280;50333;47.436;21.390;2022-11-03T07:27:28;101483.84;;;13.08;83.15
64086;BME280;50333;47.436;21.390;2022-11-03T07:30:28;101482.47;;;13.33;81.49
64086;BME280;50333;47.436;21.390;2022-11-03T07:33:13;101485.09;;;13.33;81.72
64086;BME280;50333;47.436;21.390;2022-11-03T07:35:44;101484.94;;;13.17;82.34
64086;BME280;50333;47.436;21.390;2022-11-03T07:38:34;101484.53;;;13.31;81.85
64086;BME280;50333;47.436;21.390;2022-11-03T07:41:08;101482.81;;;13.14;82.87
64086;BME280;50333;47.436;21.390;2022-11-03T07:44:14;101478.03;;;13.01;83.48
64086;BME280;50333;47.436;21.390;2022-11-03T07:46:49;101484.41;;;13.15;81.90
64086;BME280;50333;47.436;21.390;2022-11-03T07:49:26;101478.66;;;13.51;81.30
64086;BME280;50333;47.436;21.390;2022-11-03T07:51:58;101478.91;;;13.49;81.41
64086;BME280;50333;47.436;21.390;2022-11-03T07:54:32;101474.75;;;13.53;81.58
64086;BME280;50333;47.436;21.390;2022-11-03T07:57:12;101481.63;;;13.65;80.15
64086;BME280;50333;47.436;21.390;2022-11-03T07:59:44;101478.22;;;13.64;79.86
64086;BME280;50333;47.436;21.390;2022-11-03T08:02:40;101485.16;;;13.43;80.65
64086;BME280;50333;47.436;21.390;2022-11-03T08:05:53;101480.75;;;13.49;81.01
64086;BME280;50333;47.436;21.390;2022-11-03T08:09:03;101477.75;;;13.02;82.80
64086;BME280;50333;47.436;21.390;2022-11-03T08:11:56;101471.69;;;13.29;81.83
64086;BME280;50333;47.436;21.390;2022-11-03T08:14:44;101472.81;;;13.38;82.13
64086;BME280;50333;47.436;21.390;2022-11-03T08:17:16;101463.97;;;13.45;82.00
64086;BME280;50333;47.436;21.390;2022-11-03T08:20:04;101459.28;;;13.52;82.05
64086;BME280;50333;47.436;21.390;2022-11-03T08:22:33;101465.38;;;13.63;81.24
64086;BME280;50333;47.436;21.390;2022-11-03T08:25:02;101465.13;;;13.64;81.22
64086;BME280;50333;47.436;21.390;2022-11-03T08:27:51;101456.19;;;13.65;81.17
64086;BME280;50333;47.436;21.390;2022-11-03T08:30:46;101448.13;;;13.72;80.73
64086;BME280;50333;47.436;21.390;2022-11-03T08:33:18;101454.47;;;13.86;79.68
64086;BME280;50333;47.436;21.390;2022-11-03T08:35:50;101447.69;;;13.90;78.82
64086;BME280;50333;47.436;21.390;2022-11-03T08:38:22;101449.81;;;13.99;78.42
64086;BME280;50333;47.436;21.390;2022-11-03T08:41:01;101449.56;;;13.95;77.87
64086;BME280;50333;47.436;21.390;2022-11-03T08:43:35;101451.84;;;13.86;78.20
64086;BME280;50333;47.436;21.390;2022-11-03T08:46:36;101439.28;;;13.83;79.09
64086;BME280;50333;47.436;21.390;2022-11-03T08:49:22;101445.41;;;14.14;77.08
64086;BME280;50333;47.436;21.390;2022-11-03T08:52:03;101449.22;;;13.81;78.11
64086;BME280;50333;47.436;21.390;2022-11-03T08:54:39;101448.41;;;13.81;78.87
64086;BME280;50333;47.436;21.390;2022-11-03T08:57:17;101440.31;;;13.87;78.34
64086;BME280;50333;47.436;21.390;2022-11-03T09:00:14;101441.72;;;14.15;76.99
64086;BME280;50333;47.436;21.390;2022-11-03T09:02:49;101456.78;;;13.77;78.78
64086;BME280;50333;47.436;21.390;2022-11-03T09:05:44;101449.00;;;13.98;77.77
64086;BME280;50333;47.436;21.390;2022-11-03T09:08:39;101448.66;;;13.79;78.84
64086;BME280;50333;47.436;21.390;2022-11-03T09:11:27;101443.44;;;13.79;78.89
64086;BME280;50333;47.436;21.390;2022-11-03T09:14:18;101451.34;;;13.89;78.01
64086;BME280;50333;47.436;21.390;2022-11-03T09:16:50;101446.03;;;13.74;78.31
64086;BME280;50333;47.436;21.390;2022-11-03T09:19:29;101438.84;;;14.17;77.40
64086;BME280;50333;47.436;21.390;2022-11-03T09:22:01;101440.44;;;14.18;77.32
64086;BME280;50333;47.436;21.390;2022-11-03T09:24:32;101435.72;;;14.20;76.98
64086;BME280;50333;47.436;21.390;2022-11-03T09:27:03;101426.31;;;14.34;76.44
64086;BME280;50333;47.436;21.390;2022-11-03T09:29:39;101428.44;;;14.43;75.68
64086;BME280;50333;47.436;21.390;2022-11-03T09:32:29;101427.00;;;13.94;77.06
64086;BME280;50333;47.436;21.390;2022-11-03T09:35:01;101426.50;;;14.02;77.26
64086;BME280;50333;47.436;21.390;2022-11-03T09:37:35;101425.41;;;13.98;77.36
64086;BME280;50333;47.436;21.390;2022-11-03T09:40:04;101421.47;;;13.90;77.77
64086;BME280;50333;47.436;21.390;2022-11-03T09:42:35;101421.28;;;14.07;76.71
64086;BME280;50333;47.436;21.390;2022-11-03T09:45:07;101417.91;;;14.27;76.27
64086;BME280;50333;47.436;21.390;2022-11-03T09:47:38;101416.31;;;14.31;76.43
64086;BME280;50333;47.436;21.390;2022-11-03T09:50:14;101416.37;;;14.57;75.18
64086;BME280;50333;47.436;21.390;2022-11-03T09:53:04;101416.94;;;14.69;73.87
64086;BME280;50333;47.436;21.390;2022-11-03T09:55:56;101407.50;;;14.79;73.76
64086;BME280;50333;47.436;21.390;2022-11-03T09:58:26;101409.87;;;14.65;74.64
64086;BME280;50333;47.436;21.390;2022-11-03T10:01:17;101405.66;;;14.84;73.74
64086;BME280;50333;47.436;21.390;2022-11-03T10:03:46;101400.41;;;14.79;73.90
64086;BME280;50333;47.436;21.390;2022-11-03T10:06:37;101398.81;;;14.68;74.44
64086;BME280;50333;47.436;21.390;2022-11-03T10:09:13;101400.41;;;14.79;74.11
64086;BME280;50333;47.436;21.390;2022-11-03T10:11:43;101400.91;;;14.61;74.52
64086;BME280;50333;47.436;21.390;2022-11-03T10:14:17;101403.25;;;14.57;74.56
64086;BME280;50333;47.436;21.390;2022-11-03T10:17:05;101413.66;;;14.06;76.50
64086;BME280;50333;47.436;21.390;2022-11-03T10:19:33;101397.47;;;14.50;75.38
64086;BME280;50333;47.436;21.390;2022-11-03T10:22:03;101399.81;;;14.31;75.96
64086;BME280;50333;47.436;21.390;2022-11-03T10:28:22;101397.53;;;14.65;74.98
64086;BME280;50333;47.436;21.390;2022-11-03T10:31:07;101386.69;;;14.36;76.17
64086;BME280;50333;47.436;21.390;2022-11-03T10:34:34;101379.63;;;14.42;75.95
64086;BME280;50333;47.436;21.390;2022-11-03T10:37:18;101386.50;;;14.58;75.18
64086;BME280;50333;47.436;21.390;2022-11-03T10:39:57;101382.78;;;14.49;75.29
64086;BME280;50333;47.436;21.390;2022-11-03T10:42:31;101378.06;;;14.30;76.00
64086;BME280;50333;47.436;21.390;2022-11-03T10:45:17;101370.75;;;14.63;74.73
64086;BME280;50333;47.436;21.390;2022-11-03T10:48:12;101367.84;;;14.55;75.33
64086;BME280;50333;47.436;21.390;2022-11-03T10:51:10;101358.66;;;14.88;74.03
64086;BME280;50333;47.436;21.390;2022-11-03T10:53:39;101361.28;;;14.88;73.07
64086;BME280;50333;47.436;21.390;2022-11-03T10:56:13;101356.28;;;14.86;73.16
64086;BME280;50333;47.436;21.390;2022-11-03T10:59:23;101352.63;;;14.82;73.71
64086;BME280;50333;47.436;21.390;2022-11-03T11:02:25;101347.66;;;14.65;74.58
64086;BME280;50333;47.436;21.390;2022-11-03T11:04:59;101349.19;;;14.36;75.64
64086;BME280;50333;47.436;21.390;2022-11-03T11:07:37;101343.97;;;14.51;75.14
64086;BME280;50333;47.436;21.390;2022-11-03T11:10:14;101342.66;;;14.84;74.42
64086;BME280;50333;47.436;21.390;2022-11-03T11:15:41;101332.91;;;14.90;73.43
64086;BME280;50333;47.436;21.390;2022-11-03T11:18:09;101320.31;;;14.87;73.43
64086;BME280;50333;47.436;21.390;2022-11-03T11:20:40;101324.53;;;14.88;73.66
64086;BME280;50333;47.436;21.390;2022-11-03T11:31:41;101317.19;;;14.69;73.58
64086;BME280;50333;47.436;21.390;2022-11-03T11:36:46;101307.75;;;14.74;74.08
64086;BME280;50333;47.436;21.390;2022-11-03T11:42:12;101295.63;;;14.93;73.48
64086;BME280;50333;47.436;21.390;2022-11-03T11:58:13;101274.13;;;14.86;73.68
64086;BME280;50333;47.436;21.390;2022-11-03T12:00:54;101267.50;;;15.04;72.92
64086;BME280;50333;47.436;21.390;2022-11-03T12:03:43;101277.72;;;15.11;71.99
64086;BME280;50333;47.436;21.390;2022-11-03T12:06:13;101271.16;;;15.08;72.07
64086;BME280;50333;47.436;21.390;2022-11-03T12:08:46;101273.53;;;15.09;71.88
64086;BME280;50333;47.436;21.390;2022-11-03T12:11:41;101265.94;;;14.98;71.76
64086;BME280;50333;47.436;21.390;2022-11-03T12:16:56;101267.06;;;14.45;73.94
64086;BME280;50333;47.436;21.390;2022-11-03T12:19:34;101258.16;;;14.67;74.07
64086;BME280;50333;47.436;21.390;2022-11-03T12:22:05;101252.88;;;14.87;72.52
64086;BME280;50333;47.436;21.390;2022-11-03T12:24:45;101252.28;;;15.01;71.99
64086;BME280;50333;47.436;21.390;2022-11-03T12:29:58;101246.75;;;15.07;71.90
64086;BME280;50333;47.436;21.390;2022-11-03T12:32:26;101238.44;;;14.80;72.48
64086;BME280;50333;47.436;21.390;2022-11-03T12:35:08;101241.09;;;14.59;74.08
64086;BME280;50333;47.436;21.390;2022-11-03T12:37:57;101236.31;;;14.87;73.23
64086;BME280;50333;47.436;21.390;2022-11-03T12:40:26;101229.50;;;14.86;72.46
64086;BME280;50333;47.436;21.390;2022-11-03T12:42:55;101220.91;;;14.65;73.87
64086;BME280;50333;47.436;21.390;2022-11-03T12:45:22;101228.19;;;14.78;73.65
64086;BME280;50333;47.436;21.390;2022-11-03T12:47:51;101224.72;;;15.03;71.93
64086;BME280;50333;47.436;21.390;2022-11-03T12:50:20;101218.53;;;14.63;73.57
64086;BME280;50333;47.436;21.390;2022-11-03T12:53:47;101223.09;;;15.07;71.85
64086;BME280;50333;47.436;21.390;2022-11-03T12:56:30;101212.19;;;14.80;72.74
64086;BME280;50333;47.436;21.390;2022-11-03T12:59:00;101209.87;;;15.28;70.65
64086;BME280;50333;47.436;21.390;2022-11-03T13:01:31;101205.16;;;15.25;70.66
64086;BME280;50333;47.436;21.390;2022-11-03T13:04:01;101202.19;;;14.82;72.15
64086;BME280;50333;47.436;21.390;2022-11-03T13:06:33;101201.22;;;14.52;73.67
64086;BME280;50333;47.436;21.390;2022-11-03T13:09:08;101194.59;;;14.80;72.87
64086;BME280;50333;47.436;21.390;2022-11-03T13:11:39;101192.69;;;15.01;71.58
64086;BME280;50333;47.436;21.390;2022-11-03T13:14:29;101185.38;;;14.93;72.62
64086;BME280;50333;47.436;21.390;2022-11-03T13:17:00;101190.03;;;15.06;71.42
64086;BME280;50333;47.436;21.390;2022-11-03T13:19:30;101188.16;;;15.12;71.32
64086;BME280;50333;47.436;21.390;2022-11-03T13:21:58;101184.22;;;15.09;70.85
64086;BME280;50333;47.436;21.390;2022-11-03T13:24:26;101185.03;;;15.10;70.80
64086;BME280;50333;47.436;21.390;2022-11-03T13:26:54;101182.81;;;14.73;72.28
64086;BME280;50333;47.436;21.390;2022-11-03T13:29:22;101179.25;;;15.08;71.37
64086;BME280;50333;47.436;21.390;2022-11-03T13:31:49;101171.75;;;14.86;71.56
64086;BME280;50333;47.436;21.390;2022-11-03T13:34:37;101174.22;;;15.12;70.27
64086;BME280;50333;47.436;21.390;2022-11-03T13:37:08;101168.66;;;14.74;71.88
64086;BME280;50333;47.436;21.390;2022-11-03T13:39:43;101167.53;;;14.90;71.02
64086;BME280;50333;47.436;21.390;2022-11-03T13:42:12;101168.16;;;14.61;71.92
64086;BME280;50333;47.436;21.390;2022-11-03T13:44:39;101169.06;;;14.96;69.78
64086;BME280;50333;47.436;21.390;2022-11-03T13:47:07;101168.75;;;15.03;69.57
64086;BME280;50333;47.436;21.390;2022-11-03T13:49:58;101169.37;;;14.89;69.57
64086;BME280;50333;47.436;21.390;2022-11-03T13:52:41;101164.12;;;14.89;69.91
64086;BME280;50333;47.436;21.390;2022-11-03T13:55:10;101160.62;;;15.04;69.42
64086;BME280;50333;47.436;21.390;2022-11-03T13:57:58;101156.53;;;14.83;70.21
64086;BME280;50333;47.436;21.390;2022-11-03T14:00:50;101157.00;;;14.95;70.15
64086;BME280;50333;47.436;21.390;2022-11-03T14:03:18;101155.34;;;15.09;69.87
64086;BME280;50333;47.436;21.390;2022-11-03T14:06:06;101150.03;;;15.20;69.38
64086;BME280;50333;47.436;21.390;2022-11-03T14:08:35;101155.13;;;15.01;69.90
64086;BME280;50333;47.436;21.390;2022-11-03T14:11:05;101145.87;;;15.14;69.35
64086;BME280;50333;47.436;21.390;2022-11-03T14:14:16;101149.59;;;15.02;69.91
64086;BME280;50333;47.436;21.390;2022-11-03T14:17:27;101144.78;;;15.20;69.11
64086;BME280;50333;47.436;21.390;2022-11-03T14:20:20;101152.66;;;15.20;69.41
64086;BME280;50333;47.436;21.390;2022-11-03T14:22:48;101145.87;;;15.14;69.56
64086;BME280;50333;47.436;21.390;2022-11-03T14:25:17;101138.28;;;15.07;69.75